EST,Max TemperatureF,Mean TemperatureF,Min TemperatureF,Max Dew PointF,MeanDew PointF,Min DewpointF,Max Humidity, Mean Humidity, Min Humidity, Max Sea Level PressureIn, Mean Sea Level PressureIn, Min Sea Level PressureIn, Max VisibilityMiles, Mean VisibilityMiles, Min VisibilityMiles, Max Wind SpeedMPH, Mean Wind SpeedMPH, Max Gust SpeedMPH,PrecipitationIn, CloudCover, Events, WindDirDegrees
2013-11-1,48,44,39,46,40,34,93,83,71,29.70,29.39,29.07,10,10,7,15,10,22,0.06,8,,322
2013-11-2,42,36,30,36,32,27,100,81,61,30.15,29.93,29.70,10,10,10,10,5,,0.00,5,,353
2013-11-3,46,35,24,37,30,21,100,79,61,30.30,30.25,30.15,10,10,10,21,4,29,0.03,4,,153
2013-11-4,50,47,44,43,39,36,82,73,62,30.26,30.14,30.03,10,10,8,24,18,34,0.01,8,,178
2013-11-5,50,42,35,43,38,30,100,78,50,30.24,30.14,29.96,10,8,0,14,6,16,0.17,4,,224
2013-11-6,42,38,33,39,33,23,93,82,60,30.01,29.85,29.73,10,9,2,17,10,24,0.35,8,,340
2013-11-7,37,32,28,27,25,23,86,69,60,30.09,30.06,30.01,10,10,10,17,11,22,0.00,7,,278
2013-11-8,44,37,30,36,25,16,86,65,39,30.19,30.11,29.91,10,10,10,17,8,25,0.00,5,,235
2013-11-9,44,42,39,39,35,28,87,76,65,29.90,29.69,29.59,10,10,5,22,15,31,0.24,8,,241
2013-11-10,41,37,33,30,27,25,81,66,53,30.18,30.05,29.81,10,10,10,18,13,26,0.00,5,,280
2013-11-11,37,32,24,32,17,9,87,63,40,30.44,30.18,29.96,10,10,3,20,13,30,0.00,6,,310
2013-11-12,30,26,21,14,9,7,64,53,40,30.59,30.51,30.40,10,10,10,17,10,23,0.00,2,,292
2013-11-13,42,30,19,27,17,9,74,56,42,30.41,30.07,29.81,10,10,10,20,10,28,0.00,0,,223
2013-11-14,39,34,30,32,25,18,93,66,49,29.84,29.80,29.77,10,10,4,13,8,17,0.02,4,,225
2013-11-15,46,36,26,39,33,23,100,83,71,29.86,29.83,29.79,10,8,3,14,4,17,0.00,0,,203
2013-11-16,50,44,37,48,41,36,94,86,76,29.86,29.68,29.40,10,6,1,20,10,32,0.26,6,Thunderstorm,184
2013-11-17,51,46,41,52,45,30,100,89,65,29.42,29.28,29.11,10,5,0,26,10,41,0.12,8,,237
2013-11-18,41,34,28,30,20,16,75,59,48,30.15,29.76,29.29,10,10,10,29,19,41,0.01,7,,303
2013-11-19,39,28,19,30,19,14,93,68,52,30.36,30.28,30.15,10,10,10,15,6,22,0.00,1,,194
2013-11-20,55,40,37,34,32,28,76,70,57,30.23,30.18,30.12,10,10,10,18,14,31,0.00,7,,183
2013-11-21,41,37,32,36,34,27,93,84,57,30.23,30.15,30.11,10,7,2,14,7,23,0.01,8,,269
2013-11-22,33,30,26,27,19,10,86,66,51,30.40,30.32,30.24,10,10,3,18,11,29,0.00,5,,306
2013-11-23,24,17,10,16,2,-2,79,55,39,30.60,30.47,30.30,10,10,10,25,15,33,0.00,2,,308
2013-11-24,24,17,10,7,3,0,85,55,36,30.56,30.40,30.04,10,10,10,24,11,36,0.00,2,,256
2013-11-25,35,30,24,25,15,3,75,54,40,30.03,29.86,29.79,10,10,5,18,13,28,0.00,7,,229
2013-11-26,30,21,12,23,13,1,86,64,43,30.11,29.99,29.85,10,10,1,16,9,25,0.00,5,,305
2013-11-27,26,19,12,16,13,5,93,75,50,30.18,30.14,30.08,10,9,3,15,9,23,0.00,4,,321
2013-11-28,24,20,17,19,17,12,93,84,74,30.43,30.24,30.16,10,6,0,10,3,,0.00,7,,356
2013-11-29,33,20,8,25,15,5,100,78,59,30.57,30.48,30.33,10,10,9,17,5,24,0.00,4,,257
2013-11-30,35,32,30,25,23,21,80,69,60,30.32,30.11,30.01,10,10,9,17,8,28,0.00,7,,249